sensor_id;sensor_type;location;lat;lon;timestamp;P1;durP1;ratioP1;P2;durP2;ratioP2
45812;SDS011;31519;45.408;10.962;2024-02-21T00:00:36;107.25;;;59.15;;
45812;SDS011;31519;45.408;10.962;2024-02-21T00:03:26;105.05;;;59.75;;
45812;SDS011;31519;45.408;10.962;2024-02-21T00:05:54;112.93;;;62.20;;
45812;SDS011;31519;45.408;10.962;2024-02-21T00:08:23;114.28;;;62.33;;
45812;SDS011;31519;45.408;10.962;2024-02-21T00:10:51;116.05;;;57.50;;
45812;SDS011;31519;45.408;10.962;2024-02-21T00:13:20;112.35;;;60.47;;
45812;SDS011;31519;45.408;10.962;2024-02-21T00:15:48;131.05;;;59.80;;
45812;SDS011;31519;45.408;10.962;2024-02-21T00:18:18;111.00;;;59.75;;
45812;SDS011;31519;45.408;10.962;2024-02-21T00:20:46;114.22;;;60.55;;
45812;SDS011;31519;45.408;10.962;2024-02-21T00:23:14;105.68;;;58.53;;
45812;SDS011;31519;45.408;10.962;2024-02-21T00:25:43;110.15;;;58.97;;
45812;SDS011;31519;45.408;10.962;2024-02-21T00:28:11;116.93;;;63.20;;
45812;SDS011;31519;45.408;10.962;2024-02-21T00:30:40;120.75;;;59.33;;
45812;SDS011;31519;45.408;10.962;2024-02-21T00:33:08;109.15;;;59.00;;
45812;SDS011;31519;45.408;10.962;2024-02-21T00:35:37;108.95;;;60.20;;
45812;SDS011;31519;45.408;10.962;2024-02-21T00:38:06;110.90;;;61.63;;
45812;SDS011;31519;45.408;10.962;2024-02-21T00:40:34;119.22;;;60.88;;
45812;SDS011;31519;45.408;10.962;2024-02-21T00:43:03;126.80;;;66.78;;
45812;SDS011;31519;45.408;10.962;2024-02-21T00:45:31;130.95;;;69.05;;
45812;SDS011;31519;45.408;10.962;2024-02-21T00:48:00;136.32;;;69.82;;
45812;SDS011;31519;45.408;10.962;2024-02-21T00:50:29;142.88;;;69.93;;
45812;SDS011;31519;45.408;10.962;2024-02-21T00:52:57;134.98;;;67.20;;
45812;SDS011;31519;45.408;10.962;2024-02-21T00:55:25;129.90;;;64.97;;
45812;SDS011;31519;45.408;10.962;2024-02-21T00:57:54;134.82;;;64.05;;
45812;SDS011;31519;45.408;10.962;2024-02-21T01:00:22;112.47;;;56.97;;
45812;SDS011;31519;45.408;10.962;2024-02-21T01:02:50;108.65;;;55.78;;
45812;SDS011;31519;45.408;10.962;2024-02-21T01:05:21;108.93;;;55.08;;
45812;SDS011;31519;45.408;10.962;2024-02-21T01:07:50;111.80;;;54.10;;
45812;SDS011;31519;45.408;10.962;2024-02-21T01:10:19;95.00;;;47.85;;
45812;SDS011;31519;45.408;10.962;2024-02-21T01:12:47;99.00;;;50.85;;
45812;SDS011;31519;45.408;10.962;2024-02-21T01:15:16;104.43;;;54.53;;
45812;SDS011;31519;45.408;10.962;2024-02-21T01:17:44;112.03;;;55.42;;
45812;SDS011;31519;45.408;10.962;2024-02-21T01:20:13;117.18;;;56.00;;
45812;SDS011;31519;45.408;10.962;2024-02-21T01:22:41;118.82;;;58.67;;
45812;SDS011;31519;45.408;10.962;2024-02-21T01:25:10;119.53;;;58.97;;
45812;SDS011;31519;45.408;10.962;2024-02-21T01:27:38;128.73;;;58.17;;
45812;SDS011;31519;45.408;10.962;2024-02-21T01:30:06;110.57;;;55.33;;
45812;SDS011;31519;45.408;10.962;2024-02-21T01:32:35;103.28;;;53.47;;
45812;SDS011;31519;45.408;10.962;2024-02-21T01:35:04;103.70;;;53.15;;
45812;SDS011;31519;45.408;10.962;2024-02-21T01:37:32;101.72;;;51.22;;
45812;SDS011;31519;45.408;10.962;2024-02-21T01:40:01;105.78;;;49.45;;
45812;SDS011;31519;45.408;10.962;2024-02-21T01:42:30;101.07;;;51.67;;
45812;SDS011;31519;45.408;10.962;2024-02-21T01:44:59;94.75;;;49.90;;
45812;SDS011;31519;45.408;10.962;2024-02-21T01:47:27;93.72;;;49.33;;
45812;SDS011;31519;45.408;10.962;2024-02-21T01:49:56;96.20;;;48.88;;
45812;SDS011;31519;45.408;10.962;2024-02-21T01:52:24;96.93;;;48.88;;
45812;SDS011;31519;45.408;10.962;2024-02-21T01:54:53;90.85;;;46.83;;
45812;SDS011;31519;45.408;10.962;2024-02-21T01:57:21;90.25;;;46.42;;
45812;SDS011;31519;45.408;10.962;2024-02-21T01:59:50;89.20;;;46.38;;
45812;SDS011;31519;45.408;10.962;2024-02-21T02:02:18;90.63;;;47.83;;
45812;SDS011;31519;45.408;10.962;2024-02-21T02:04:47;95.38;;;47.22;;
45812;SDS011;31519;45.408;10.962;2024-02-21T02:07:15;87.63;;;45.42;;
45812;SDS011;31519;45.408;10.962;2024-02-21T02:09:44;92.38;;;47.15;;
45812;SDS011;31519;45.408;10.962;2024-02-21T02:12:12;86.88;;;44.88;;
45812;SDS011;31519;45.408;10.962;2024-02-21T02:14:41;89.22;;;45.25;;
45812;SDS011;31519;45.408;10.962;2024-02-21T02:17:09;81.53;;;43.28;;
45812;SDS011;31519;45.408;10.962;2024-02-21T02:19:38;82.95;;;42.50;;
45812;SDS011;31519;45.408;10.962;2024-02-21T02:22:09;81.20;;;41.08;;
45812;SDS011;31519;45.408;10.962;2024-02-21T02:24:42;82.85;;;40.80;;
45812;SDS011;31519;45.408;10.962;2024-02-21T02:27:10;83.05;;;42.25;;
45812;SDS011;31519;45.408;10.962;2024-02-21T02:29:39;82.05;;;41.90;;
45812;SDS011;31519;45.408;10.962;2024-02-21T02:32:07;75.57;;;41.65;;
45812;SDS011;31519;45.408;10.962;2024-02-21T02:34:37;78.72;;;40.28;;
45812;SDS011;31519;45.408;10.962;2024-02-21T02:37:05;74.03;;;36.95;;
45812;SDS011;31519;45.408;10.962;2024-02-21T02:39:34;71.78;;;37.92;;
45812;SDS011;31519;45.408;10.962;2024-02-21T02:42:02;65.57;;;34.38;;
45812;SDS011;31519;45.408;10.962;2024-02-21T02:44:30;59.30;;;32.75;;
45812;SDS011;31519;45.408;10.962;2024-02-21T02:46:59;61.42;;;31.58;;
45812;SDS011;31519;45.408;10.962;2024-02-21T02:49:27;60.20;;;33.65;;
45812;SDS011;31519;45.408;10.962;2024-02-21T02:54:49;59.80;;;32.60;;
45812;SDS011;31519;45.408;10.962;2024-02-21T02:57:19;60.72;;;32.33;;
45812;SDS011;31519;45.408;10.962;2024-02-21T02:59:48;63.40;;;31.90;;
45812;SDS011;31519;45.408;10.962;2024-02-21T03:02:17;60.33;;;31.52;;
45812;SDS011;31519;45.408;10.962;2024-02-21T03:04:45;60.47;;;30.52;;
45812;SDS011;31519;45.408;10.962;2024-02-21T03:07:14;64.25;;;32.42;;
45812;SDS011;31519;45.408;10.962;2024-02-21T03:09:43;62.40;;;31.33;;
45812;SDS011;31519;45.408;10.962;2024-02-21T03:12:11;57.95;;;30.25;;
45812;SDS011;31519;45.408;10.962;2024-02-21T03:14:40;63.20;;;32.58;;
45812;SDS011;31519;45.408;10.962;2024-02-21T03:17:08;59.33;;;30.55;;
45812;SDS011;31519;45.408;10.962;2024-02-21T03:19:37;57.63;;;30.75;;
45812;SDS011;31519;45.408;10.962;2024-02-21T03:22:05;61.33;;;30.98;;
45812;SDS011;31519;45.408;10.962;2024-02-21T03:24:34;61.85;;;31.77;;
45812;SDS011;31519;45.408;10.962;2024-02-21T03:27:02;56.85;;;30.27;;
45812;SDS011;31519;45.408;10.962;2024-02-21T03:29:30;70.55;;;30.77;;
45812;SDS011;31519;45.408;10.962;2024-02-21T03:31:58;57.85;;;29.63;;
45812;SDS011;31519;45.408;10.962;2024-02-21T03:34:27;53.75;;;29.77;;
45812;SDS011;31519;45.408;10.962;2024-02-21T03:36:55;64.80;;;30.70;;
45812;SDS011;31519;45.408;10.962;2024-02-21T03:39:24;50.33;;;29.45;;
45812;SDS011;31519;45.408;10.962;2024-02-21T03:41:52;57.50;;;30.92;;
45812;SDS011;31519;45.408;10.962;2024-02-21T03:44:21;53.75;;;29.63;;
45812;SDS011;31519;45.408;10.962;2024-02-21T03:46:49;57.60;;;29.65;;
45812;SDS011;31519;45.408;10.962;2024-02-21T03:49:19;56.85;;;30.63;;
45812;SDS011;31519;45.408;10.962;2024-02-21T03:51:48;54.03;;;28.00;;
45812;SDS011;31519;45.408;10.962;2024-02-21T03:54:16;53.90;;;29.25;;
45812;SDS011;31519;45.408;10.962;2024-02-21T03:56:44;59.90;;;31.25;;
45812;SDS011;31519;45.408;10.962;2024-02-21T03:59:13;56.25;;;29.63;;
45812;SDS011;31519;45.408;10.962;2024-02-21T04:01:41;55.20;;;29.33;;
45812;SDS011;31519;45.408;10.962;2024-02-21T04:04:10;54.03;;;28.67;;
45812;SDS011;31519;45.408;10.962;2024-02-21T04:06:48;54.75;;;28.75;;
45812;SDS011;31519;45.408;10.962;2024-02-21T04:09:17;51.88;;;26.42;;
45812;SDS011;31519;45.408;10.962;2024-02-21T04:11:46;50.05;;;26.85;;
45812;SDS011;31519;45.408;10.962;2024-02-21T04:14:14;48.50;;;27.15;;
45812;SDS011;31519;45.408;10.962;2024-02-21T04:16:42;54.53;;;26.48;;
45812;SDS011;31519;45.408;10.962;2024-02-21T04:19:11;48.88;;;26.55;;
45812;SDS011;31519;45.408;10.962;2024-02-21T04:21:40;49.60;;;26.05;;
45812;SDS011;31519;45.408;10.962;2024-02-21T04:24:08;49.72;;;25.70;;
45812;SDS011;31519;45.408;10.962;2024-02-21T04:26:36;51.15;;;26.70;;
45812;SDS011;31519;45.408;10.962;2024-02-21T04:29:05;46.03;;;26.45;;
45812;SDS011;31519;45.408;10.962;2024-02-21T04:31:33;44.72;;;25.05;;
45812;SDS011;31519;45.408;10.962;2024-02-21T04:34:02;47.38;;;27.25;;
45812;SDS011;31519;45.408;10.962;2024-02-21T04:36:30;50.22;;;26.70;;
45812;SDS011;31519;45.408;10.962;2024-02-21T04:38:59;47.00;;;26.05;;
45812;SDS011;31519;45.408;10.962;2024-02-21T04:41:27;42.97;;;22.95;;
45812;SDS011;31519;45.408;10.962;2024-02-21T04:43:55;41.47;;;21.98;;
45812;SDS011;31519;45.408;10.962;2024-02-21T04:46:24;48.92;;;23.90;;
45812;SDS011;31519;45.408;10.962;2024-02-21T04:48:52;43.55;;;23.50;;
45812;SDS011;31519;45.408;10.962;2024-02-21T04:51:21;53.97;;;24.80;;
45812;SDS011;31519;45.408;10.962;2024-02-21T04:53:49;45.22;;;22.55;;
45812;SDS011;31519;45.408;10.962;2024-02-21T04:56:17;45.20;;;22.55;;
45812;SDS011;31519;45.408;10.962;2024-02-21T04:58:46;41.42;;;22.23;;
45812;SDS011;31519;45.408;10.962;2024-02-21T05:01:14;42.28;;;21.15;;
45812;SDS011;31519;45.408;10.962;2024-02-21T05:03:43;43.67;;;21.55;;
45812;SDS011;31519;45.408;10.962;2024-02-21T05:06:12;39.28;;;20.45;;
45812;SDS011;31519;45.408;10.962;2024-02-21T05:08:40;37.03;;;20.33;;
45812;SDS011;31519;45.408;10.962;2024-02-21T05:11:09;41.35;;;22.52;;
45812;SDS011;31519;45.408;10.962;2024-02-21T05:13:37;53.47;;;22.52;;
45812;SDS011;31519;45.408;10.962;2024-02-21T05:16:05;43.95;;;21.45;;
45812;SDS011;31519;45.408;10.962;2024-02-21T05:18:34;43.95;;;22.52;;
45812;SDS011;31519;45.408;10.962;2024-02-21T05:21:02;52.35;;;22.25;;
45812;SDS011;31519;45.408;10.962;2024-02-21T05:23:31;48.22;;;24.45;;
45812;SDS011;31519;45.408;10.962;2024-02-21T05:25:59;46.95;;;23.27;;
45812;SDS011;31519;45.408;10.962;2024-02-21T05:28:28;41.70;;;22.17;;
45812;SDS011;31519;45.408;10.962;2024-02-21T05:30:56;54.90;;;23.67;;
45812;SDS011;31519;45.408;10.962;2024-02-21T05:33:25;42.03;;;22.63;;
45812;SDS011;31519;45.408;10.962;2024-02-21T05:35:53;45.47;;;22.55;;
45812;SDS011;31519;45.408;10.962;2024-02-21T05:38:21;49.17;;;20.83;;
45812;SDS011;31519;45.408;10.962;2024-02-21T05:40:49;37.85;;;20.48;;
45812;SDS011;31519;45.408;10.962;2024-02-21T05:43:18;42.95;;;20.42;;
45812;SDS011;31519;45.408;10.962;2024-02-21T05:45:46;36.88;;;20.10;;
45812;SDS011;31519;45.408;10.962;2024-02-21T05:48:14;41.25;;;20.95;;
45812;SDS011;31519;45.408;10.962;2024-02-21T05:50:43;44.58;;;20.65;;
45812;SDS011;31519;45.408;10.962;2024-02-21T05:53:12;33.45;;;19.42;;
45812;SDS011;31519;45.408;10.962;2024-02-21T05:55:40;45.60;;;21.33;;
45812;SDS011;31519;45.408;10.962;2024-02-21T05:58:09;48.15;;;21.13;;
45812;SDS011;31519;45.408;10.962;2024-02-21T06:00:41;43.25;;;20.73;;
45812;SDS011;31519;45.408;10.962;2024-02-21T06:03:10;46.35;;;19.92;;
45812;SDS011;31519;45.408;10.962;2024-02-21T06:05:38;40.72;;;20.42;;
45812;SDS011;31519;45.408;10.962;2024-02-21T06:08:06;42.60;;;20.58;;
45812;SDS011;31519;45.408;10.962;2024-02-21T06:10:35;40.53;;;19.63;;
45812;SDS011;31519;45.408;10.962;2024-02-21T06:13:04;43.30;;;18.77;;
45812;SDS011;31519;45.408;10.962;2024-02-21T06:15:32;46.28;;;20.75;;
45812;SDS011;31519;45.408;10.962;2024-02-21T06:18:00;45.10;;;20.27;;
45812;SDS011;31519;45.408;10.962;2024-02-21T06:20:29;48.45;;;20.02;;
45812;SDS011;31519;45.408;10.962;2024-02-21T06:22:57;45.40;;;19.35;;
45812;SDS011;31519;45.408;10.962;2024-02-21T06:25:26;38.08;;;19.67;;
45812;SDS011;31519;45.408;10.962;2024-02-21T06:27:54;55.65;;;20.35;;
45812;SDS011;31519;45.408;10.962;2024-02-21T06:30:22;44.63;;;18.83;;
45812;SDS011;31519;45.408;10.962;2024-02-21T06:32:51;33.92;;;19.05;;
45812;SDS011;31519;45.408;10.962;2024-02-21T06:35:19;37.42;;;19.40;;
45812;SDS011;31519;45.408;10.962;2024-02-21T06:37:48;40.72;;;20.63;;
45812;SDS011;31519;45.408;10.962;2024-02-21T06:40:20;37.30;;;18.33;;
45812;SDS011;31519;45.408;10.962;2024-02-21T06:42:50;44.28;;;18.65;;
45812;SDS011;31519;45.408;10.962;2024-02-21T06:45:18;35.60;;;18.50;;
45812;SDS011;31519;45.408;10.962;2024-02-21T06:47:47;40.80;;;20.08;;
45812;SDS011;31519;45.408;10.962;2024-02-21T06:50:15;38.42;;;19.35;;
45812;SDS011;31519;45.408;10.962;2024-02-21T06:52:44;47.40;;;18.75;;
45812;SDS011;31519;45.408;10.962;2024-02-21T06:55:12;41.13;;;19.45;;
45812;SDS011;31519;45.408;10.962;2024-02-21T06:57:41;54.50;;;19.70;;
45812;SDS011;31519;45.408;10.962;2024-02-21T07:00:09;58.17;;;19.90;;
45812;SDS011;31519;45.408;10.962;2024-02-21T07:02:38;47.28;;;19.05;;
45812;SDS011;31519;45.408;10.962;2024-02-21T07:05:06;42.25;;;19.92;;
45812;SDS011;31519;45.408;10.962;2024-02-21T07:07:35;35.58;;;19.48;;
45812;SDS011;31519;45.408;10.962;2024-02-21T07:10:04;46.15;;;21.35;;
45812;SDS011;31519;45.408;10.962;2024-02-21T07:12:33;42.00;;;19.92;;
45812;SDS011;31519;45.408;10.962;2024-02-21T07:15:03;35.75;;;18.25;;
45812;SDS011;31519;45.408;10.962;2024-02-21T07:17:34;53.42;;;19.60;;
45812;SDS011;31519;45.408;10.962;2024-02-21T07:20:03;53.35;;;20.67;;
45812;SDS011;31519;45.408;10.962;2024-02-21T07:22:31;41.22;;;19.25;;
45812;SDS011;31519;45.408;10.962;2024-02-21T07:25:00;44.65;;;19.95;;
45812;SDS011;31519;45.408;10.962;2024-02-21T07:27:33;46.85;;;18.38;;
45812;SDS011;31519;45.408;10.962;2024-02-21T07:30:01;47.10;;;18.65;;
45812;SDS011;31519;45.408;10.962;2024-02-21T07:32:30;29.67;;;16.27;;
45812;SDS011;31519;45.408;10.962;2024-02-21T07:34:58;38.42;;;17.45;;
45812;SDS011;31519;45.408;10.962;2024-02-21T07:37:26;35.22;;;17.67;;
45812;SDS011;31519;45.408;10.962;2024-02-21T07:39:59;43.33;;;18.60;;
45812;SDS011;31519;45.408;10.962;2024-02-21T07:42:27;39.90;;;16.58;;
45812;SDS011;31519;45.408;10.962;2024-02-21T07:44:55;54.33;;;19.83;;
45812;SDS011;31519;45.408;10.962;2024-02-21T07:47:24;31.40;;;16.90;;
45812;SDS011;31519;45.408;10.962;2024-02-21T07:49:53;39.47;;;17.90;;
45812;SDS011;31519;45.408;10.962;2024-02-21T07:52:21;43.47;;;18.30;;
45812;SDS011;31519;45.408;10.962;2024-02-21T07:54:50;50.92;;;19.52;;
45812;SDS011;31519;45.408;10.962;2024-02-21T07:57:19;36.83;;;18.23;;
45812;SDS011;31519;45.408;10.962;2024-02-21T07:59:47;39.47;;;18.70;;
45812;SDS011;31519;45.408;10.962;2024-02-21T08:02:16;59.67;;;20.55;;
45812;SDS011;31519;45.408;10.962;2024-02-21T08:04:45;47.22;;;19.17;;
45812;SDS011;31519;45.408;10.962;2024-02-21T08:07:13;34.28;;;17.35;;
45812;SDS011;31519;45.408;10.962;2024-02-21T08:09:41;39.15;;;18.02;;
45812;SDS011;31519;45.408;10.962;2024-02-21T08:12:13;39.88;;;18.25;;
45812;SDS011;31519;45.408;10.962;2024-02-21T08:14:41;52.28;;;18.65;;
45812;SDS011;31519;45.408;10.962;2024-02-21T08:17:10;42.35;;;17.58;;
45812;SDS011;31519;45.408;10.962;2024-02-21T08:19:38;36.63;;;19.35;;
45812;SDS011;31519;45.408;10.962;2024-02-21T08:22:06;60.70;;;21.92;;
45812;SDS011;31519;45.408;10.962;2024-02-21T08:24:35;59.67;;;22.10;;
45812;SDS011;31519;45.408;10.962;2024-02-21T08:27:03;53.80;;;23.60;;
45812;SDS011;31519;45.408;10.962;2024-02-21T08:29:32;62.65;;;24.38;;
45812;SDS011;31519;45.408;10.962;2024-02-21T08:32:00;54.20;;;23.10;;
45812;SDS011;31519;45.408;10.962;2024-02-21T08:34:28;54.35;;;25.95;;
45812;SDS011;31519;45.408;10.962;2024-02-21T08:36:58;59.60;;;24.77;;
45812;SDS011;31519;45.408;10.962;2024-02-21T08:39:26;49.65;;;24.10;;
45812;SDS011;31519;45.408;10.962;2024-02-21T08:41:56;46.13;;;23.38;;
45812;SDS011;31519;45.408;10.962;2024-02-21T08:44:25;55.90;;;23.38;;
45812;SDS011;31519;45.408;10.962;2024-02-21T08:46:56;54.70;;;20.95;;
45812;SDS011;31519;45.408;10.962;2024-02-21T08:49:24;49.05;;;22.73;;
45812;SDS011;31519;45.408;10.962;2024-02-21T08:52:02;50.80;;;23.27;;
45812;SDS011;31519;45.408;10.962;2024-02-21T08:54:31;60.63;;;24.60;;
45812;SDS011;31519;45.408;10.962;2024-02-21T08:57:02;47.40;;;24.08;;
45812;SDS011;31519;45.408;10.962;2024-02-21T08:59:31;47.25;;;21.98;;
45812;SDS011;31519;45.408;10.962;2024-02-21T09:02:00;47.42;;;21.95;;
45812;SDS011;31519;45.408;10.962;2024-02-21T09:04:30;61.70;;;22.95;;
45812;SDS011;31519;45.408;10.962;2024-02-21T09:06:59;52.28;;;22.70;;
45812;SDS011;31519;45.408;10.962;2024-02-21T09:09:28;33.13;;;19.25;;
45812;SDS011;31519;45.408;10.962;2024-02-21T09:11:56;37.88;;;19.40;;
45812;SDS011;31519;45.408;10.962;2024-02-21T09:14:25;37.47;;;18.80;;
45812;SDS011;31519;45.408;10.962;2024-02-21T09:16:54;44.33;;;19.90;;
45812;SDS011;31519;45.408;10.962;2024-02-21T09:19:23;44.95;;;19.02;;
45812;SDS011;31519;45.408;10.962;2024-02-21T09:21:52;48.60;;;19.92;;
45812;SDS011;31519;45.408;10.962;2024-02-21T09:24:21;45.28;;;21.38;;
45812;SDS011;31519;45.408;10.962;2024-02-21T09:26:49;44.83;;;19.80;;
45812;SDS011;31519;45.408;10.962;2024-02-21T09:29:17;52.58;;;18.98;;
45812;SDS011;31519;45.408;10.962;2024-02-21T09:31:48;57.17;;;23.20;;
45812;SDS011;31519;45.408;10.962;2024-02-21T09:34:17;52.65;;;21.10;;
45812;SDS011;31519;45.408;10.962;2024-02-21T09:36:45;41.05;;;19.27;;
45812;SDS011;31519;45.408;10.962;2024-02-21T09:39:14;47.38;;;18.98;;
45812;SDS011;31519;45.408;10.962;2024-02-21T09:41:47;40.35;;;20.23;;
45812;SDS011;31519;45.408;10.962;2024-02-21T09:44:24;52.65;;;22.85;;
45812;SDS011;31519;45.408;10.962;2024-02-21T09:47:09;58.70;;;22.45;;
45812;SDS011;31519;45.408;10.962;2024-02-21T09:49:42;54.85;;;23.80;;
45812;SDS011;31519;45.408;10.962;2024-02-21T09:52:12;44.50;;;21.77;;
45812;SDS011;31519;45.408;10.962;2024-02-21T09:54:42;49.95;;;23.98;;
45812;SDS011;31519;45.408;10.962;2024-02-21T09:57:13;47.08;;;22.73;;
45812;SDS011;31519;45.408;10.962;2024-02-21T09:59:41;48.30;;;21.45;;
45812;SDS011;31519;45.408;10.962;2024-02-21T10:02:11;43.33;;;22.40;;
45812;SDS011;31519;45.408;10.962;2024-02-21T10:04:40;38.85;;;22.33;;
45812;SDS011;31519;45.408;10.962;2024-02-21T10:07:09;38.15;;;21.33;;
45812;SDS011;31519;45.408;10.962;2024-02-21T10:09:39;38.38;;;20.00;;
45812;SDS011;31519;45.408;10.962;2024-02-21T10:12:08;41.30;;;22.30;;
45812;SDS011;31519;45.408;10.962;2024-02-21T10:14:39;45.35;;;23.35;;
45812;SDS011;31519;45.408;10.962;2024-02-21T10:17:08;48.38;;;23.75;;
45812;SDS011;31519;45.408;10.962;2024-02-21T10:19:43;48.75;;;24.35;;
45812;SDS011;31519;45.408;10.962;2024-02-21T10:22:11;49.50;;;27.55;;
45812;SDS011;31519;45.408;10.962;2024-02-21T10:24:39;47.38;;;26.70;;
45812;SDS011;31519;45.408;10.962;2024-02-21T10:27:11;43.85;;;24.55;;
45812;SDS011;31519;45.408;10.962;2024-02-21T10:29:40;45.78;;;25.67;;
45812;SDS011;31519;45.408;10.962;2024-02-21T10:32:11;48.60;;;28.42;;
45812;SDS011;31519;45.408;10.962;2024-02-21T10:34:41;49.63;;;30.17;;
45812;SDS011;31519;45.408;10.962;2024-02-21T10:37:11;54.75;;;32.03;;
45812;SDS011;31519;45.408;10.962;2024-02-21T10:39:40;54.83;;;33.28;;
45812;SDS011;31519;45.408;10.962;2024-02-21T10:42:10;52.88;;;30.48;;
45812;SDS011;31519;45.408;10.962;2024-02-21T10:44:40;52.20;;;26.80;;
45812;SDS011;31519;45.408;10.962;2024-02-21T10:47:11;50.03;;;25.50;;
45812;SDS011;31519;45.408;10.962;2024-02-21T10:49:41;53.03;;;26.27;;
45812;SDS011;31519;45.408;10.962;2024-02-21T10:52:31;46.50;;;26.30;;
45812;SDS011;31519;45.408;10.962;2024-02-21T10:55:21;50.78;;;28.23;;
45812;SDS011;31519;45.408;10.962;2024-02-21T10:58:00;48.78;;;29.67;;
45812;SDS011;31519;45.408;10.962;2024-02-21T11:00:28;54.78;;;30.48;;
45812;SDS011;31519;45.408;10.962;2024-02-21T11:02:58;52.53;;;32.22;;
45812;SDS011;31519;45.408;10.962;2024-02-21T11:05:28;57.30;;;29.77;;
45812;SDS011;31519;45.408;10.962;2024-02-21T11:07:58;52.55;;;31.35;;
45812;SDS011;31519;45.408;10.962;2024-02-21T11:10:27;54.50;;;30.10;;
45812;SDS011;31519;45.408;10.962;2024-02-21T11:13:08;58.97;;;34.03;;
45812;SDS011;31519;45.408;10.962;2024-02-21T11:15:37;56.42;;;33.80;;
45812;SDS011;31519;45.408;10.962;2024-02-21T11:18:06;62.47;;;35.92;;
45812;SDS011;31519;45.408;10.962;2024-02-21T11:20:35;60.25;;;35.03;;
45812;SDS011;31519;45.408;10.962;2024-02-21T11:23:05;58.95;;;38.10;;
45812;SDS011;31519;45.408;10.962;2024-02-21T11:25:33;58.65;;;36.17;;
45812;SDS011;31519;45.408;10.962;2024-02-21T11:28:03;68.72;;;38.25;;
45812;SDS011;31519;45.408;10.962;2024-02-21T11:30:32;62.53;;;34.83;;
45812;SDS011;31519;45.408;10.962;2024-02-21T11:33:06;55.95;;;34.15;;
45812;SDS011;31519;45.408;10.962;2024-02-21T11:35:35;61.20;;;34.78;;
45812;SDS011;31519;45.408;10.962;2024-02-21T11:38:11;60.95;;;34.20;;
45812;SDS011;31519;45.408;10.962;2024-02-21T11:40:45;62.58;;;38.45;;
45812;SDS011;31519;45.408;10.962;2024-02-21T11:43:15;71.32;;;42.45;;
45812;SDS011;31519;45.408;10.962;2024-02-21T11:45:44;61.70;;;36.90;;
45812;SDS011;31519;45.408;10.962;2024-02-21T11:48:13;65.60;;;37.08;;
45812;SDS011;31519;45.408;10.962;2024-02-21T11:50:42;72.28;;;40.42;;
45812;SDS011;31519;45.408;10.962;2024-02-21T11:53:20;73.47;;;40.80;;
45812;SDS011;31519;45.408;10.962;2024-02-21T11:55:49;75.07;;;43.92;;
45812;SDS011;31519;45.408;10.962;2024-02-21T11:58:18;80.10;;;41.60;;
45812;SDS011;31519;45.408;10.962;2024-02-21T12:00:46;71.72;;;45.17;;
45812;SDS011;31519;45.408;10.962;2024-02-21T12:03:15;86.10;;;48.58;;
45812;SDS011;31519;45.408;10.962;2024-02-21T12:05:43;87.22;;;48.80;;
45812;SDS011;31519;45.408;10.962;2024-02-21T12:08:15;82.88;;;44.10;;
45812;SDS011;31519;45.408;10.962;2024-02-21T12:10:44;74.45;;;43.30;;
45812;SDS011;31519;45.408;10.962;2024-02-21T12:13:13;74.10;;;45.95;;
45812;SDS011;31519;45.408;10.962;2024-02-21T12:15:41;80.82;;;47.30;;
45812;SDS011;31519;45.408;10.962;2024-02-21T12:18:10;85.13;;;49.20;;
45812;SDS011;31519;45.408;10.962;2024-02-21T12:20:38;78.03;;;52.08;;
45812;SDS011;31519;45.408;10.962;2024-02-21T12:23:10;95.28;;;53.40;;
45812;SDS011;31519;45.408;10.962;2024-02-21T12:25:38;76.43;;;46.58;;
45812;SDS011;31519;45.408;10.962;2024-02-21T12:28:07;74.88;;;45.78;;
45812;SDS011;31519;45.408;10.962;2024-02-21T12:30:36;80.85;;;48.28;;
45812;SDS011;31519;45.408;10.962;2024-02-21T12:33:07;92.55;;;53.53;;
45812;SDS011;31519;45.408;10.962;2024-02-21T12:35:36;83.53;;;51.72;;
45812;SDS011;31519;45.408;10.962;2024-02-21T12:38:04;77.40;;;49.00;;
45812;SDS011;31519;45.408;10.962;2024-02-21T12:40:33;78.07;;;47.85;;
45812;SDS011;31519;45.408;10.962;2024-02-21T12:43:01;77.40;;;48.65;;
45812;SDS011;31519;45.408;10.962;2024-02-21T12:45:30;85.20;;;51.80;;
45812;SDS011;31519;45.408;10.962;2024-02-21T12:47:59;81.68;;;48.38;;
45812;SDS011;31519;45.408;10.962;2024-02-21T12:50:27;78.15;;;46.58;;
45812;SDS011;31519;45.408;10.962;2024-02-21T12:52:56;67.38;;;42.47;;
45812;SDS011;31519;45.408;10.962;2024-02-21T12:55:26;64.10;;;40.00;;
45812;SDS011;31519;45.408;10.962;2024-02-21T12:57:54;68.03;;;42.35;;
45812;SDS011;31519;45.408;10.962;2024-02-21T13:00:23;65.13;;;39.95;;
45812;SDS011;31519;45.408;10.962;2024-02-21T13:02:54;58.00;;;36.38;;
45812;SDS011;31519;45.408;10.962;2024-02-21T13:05:22;62.63;;;35.42;;
45812;SDS011;31519;45.408;10.962;2024-02-21T13:07:51;66.63;;;40.33;;
45812;SDS011;31519;45.408;10.962;2024-02-21T13:10:20;62.22;;;36.88;;
45812;SDS011;31519;45.408;10.962;2024-02-21T13:12:49;58.00;;;36.33;;
45812;SDS011;31519;45.408;10.962;2024-02-21T13:15:18;65.18;;;37.00;;
45812;SDS011;31519;45.408;10.962;2024-02-21T13:17:46;49.38;;;30.45;;
45812;SDS011;31519;45.408;10.962;2024-02-21T13:20:15;50.97;;;32.28;;
45812;SDS011;31519;45.408;10.962;2024-02-21T13:22:44;49.55;;;29.75;;
45812;SDS011;31519;45.408;10.962;2024-02-21T13:25:12;40.08;;;25.42;;
45812;SDS011;31519;45.408;10.962;2024-02-21T13:30:14;49.95;;;29.73;;
45812;SDS011;31519;45.408;10.962;2024-02-21T13:32:46;50.70;;;29.25;;
45812;SDS011;31519;45.408;10.962;2024-02-21T13:35:14;54.65;;;32.55;;
45812;SDS011;31519;45.408;10.962;2024-02-21T13:37:44;51.45;;;31.00;;
45812;SDS011;31519;45.408;10.962;2024-02-21T13:40:12;46.55;;;29.67;;
45812;SDS011;31519;45.408;10.962;2024-02-21T13:42:41;42.22;;;26.75;;
45812;SDS011;31519;45.408;10.962;2024-02-21T13:45:10;31.48;;;19.77;;
45812;SDS011;31519;45.408;10.962;2024-02-21T13:47:39;33.50;;;20.33;;
45812;SDS011;31519;45.408;10.962;2024-02-21T13:50:07;37.60;;;24.88;;
45812;SDS011;31519;45.408;10.962;2024-02-21T13:52:39;39.80;;;25.75;;
45812;SDS011;31519;45.408;10.962;2024-02-21T13:55:11;39.58;;;24.25;;
45812;SDS011;31519;45.408;10.962;2024-02-21T13:57:39;38.85;;;23.20;;
45812;SDS011;31519;45.408;10.962;2024-02-21T14:00:07;42.92;;;24.70;;
45812;SDS011;31519;45.408;10.962;2024-02-21T14:02:38;37.88;;;23.05;;
45812;SDS011;31519;45.408;10.962;2024-02-21T14:05:07;39.17;;;23.13;;
45812;SDS011;31519;45.408;10.962;2024-02-21T14:07:38;42.78;;;24.00;;
45812;SDS011;31519;45.408;10.962;2024-02-21T14:10:07;44.53;;;23.60;;
45812;SDS011;31519;45.408;10.962;2024-02-21T14:12:37;44.35;;;25.08;;
45812;SDS011;31519;45.408;10.962;2024-02-21T14:15:11;37.72;;;26.17;;
45812;SDS011;31519;45.408;10.962;2024-02-21T14:17:39;42.67;;;27.75;;
45812;SDS011;31519;45.408;10.962;2024-02-21T14:20:08;45.63;;;26.23;;
45812;SDS011;31519;45.408;10.962;2024-02-21T14:22:39;42.45;;;25.65;;
45812;SDS011;31519;45.408;10.962;2024-02-21T14:25:08;39.08;;;25.63;;